sensor_id;sensor_type;location;lat;lon;timestamp;P1;P2;P0
72307;PMS5003;60257;42.638;23.376;2022-10-16T00:01:23;29.00;29.00;16.67
72307;PMS5003;60257;42.638;23.376;2022-10-16T00:03:50;38.67;35.67;24.00
72307;PMS5003;60257;42.638;23.376;2022-10-16T00:06:17;28.33;26.00;13.33
72307;PMS5003;60257;42.638;23.376;2022-10-16T00:08:43;30.00;29.33;17.00
72307;PMS5003;60257;42.638;23.376;2022-10-16T00:11:29;38.33;33.67;20.33
72307;PMS5003;60257;42.638;23.376;2022-10-16T00:14:02;33.33;30.67;20.33
72307;PMS5003;60257;42.638;23.376;2022-10-16T00:16:31;38.00;34.67;22.67
72307;PMS5003;60257;42.638;23.376;2022-10-16T00:18:57;44.33;38.00;24.00
72307;PMS5003;60257;42.638;23.376;2022-10-16T00:21:24;39.00;33.67;18.00
72307;PMS5003;60257;42.638;23.376;2022-10-16T00:23:52;36.33;34.00;21.00
72307;PMS5003;60257;42.638;23.376;2022-10-16T00:26:19;38.67;36.00;24.00
72307;PMS5003;60257;42.638;23.376;2022-10-16T00:28:45;45.67;39.00;24.00
72307;PMS5003;60257;42.638;23.376;2022-10-16T00:31:12;34.33;34.33;24.00
72307;PMS5003;60257;42.638;23.376;2022-10-16T00:33:38;34.00;32.33;20.00
72307;PMS5003;60257;42.638;23.376;2022-10-16T00:36:06;36.33;32.33;20.67
72307;PMS5003;60257;42.638;23.376;2022-10-16T00:38:32;39.67;36.67;21.00
72307;PMS5003;60257;42.638;23.376;2022-10-16T00:40:58;35.67;30.67;20.67
72307;PMS5003;60257;42.638;23.376;2022-10-16T00:51:30;34.67;33.33;23.00
72307;PMS5003;60257;42.638;23.376;2022-10-16T00:53:58;41.00;37.00;24.00
72307;PMS5003;60257;42.638;23.376;2022-10-16T00:56:26;34.67;27.33;16.33
72307;PMS5003;60257;42.638;23.376;2022-10-16T00:58:54;42.00;36.00;23.67
72307;PMS5003;60257;42.638;23.376;2022-10-16T01:01:20;40.00;35.33;19.33
72307;PMS5003;60257;42.638;23.376;2022-10-16T01:03:46;32.33;32.33;18.00
72307;PMS5003;60257;42.638;23.376;2022-10-16T01:11:44;45.33;38.67;24.33
72307;PMS5003;60257;42.638;23.376;2022-10-16T01:14:22;43.33;39.00;24.00
72307;PMS5003;60257;42.638;23.376;2022-10-16T01:16:55;33.67;33.67;23.00
72307;PMS5003;60257;42.638;23.376;2022-10-16T01:19:29;45.33;39.00;24.00
72307;PMS5003;60257;42.638;23.376;2022-10-16T01:22:32;44.33;39.67;24.00
72307;PMS5003;60257;42.638;23.376;2022-10-16T01:25:07;34.00;30.00;19.00
72307;PMS5003;60257;42.638;23.376;2022-10-16T01:27:37;44.33;36.00;23.00
72307;PMS5003;60257;42.638;23.376;2022-10-16T01:35:44;22.67;21.67;13.33
72307;PMS5003;60257;42.638;23.376;2022-10-16T01:38:18;23.33;22.00;14.00
72307;PMS5003;60257;42.638;23.376;2022-10-16T01:40:53;17.00;17.00;9.33
72307;PMS5003;60257;42.638;23.376;2022-10-16T01:43:31;24.00;22.67;13.00
72307;PMS5003;60257;42.638;23.376;2022-10-16T01:46:00;22.33;19.67;14.67
72307;PMS5003;60257;42.638;23.376;2022-10-16T01:48:27;22.33;19.67;13.00
72307;PMS5003;60257;42.638;23.376;2022-10-16T01:50:59;24.33;22.33;15.33
72307;PMS5003;60257;42.638;23.376;2022-10-16T01:53:28;27.33;24.33;14.33
72307;PMS5003;60257;42.638;23.376;2022-10-16T01:55:55;22.33;19.00;12.00
72307;PMS5003;60257;42.638;23.376;2022-10-16T01:58:23;22.67;21.00;13.00
72307;PMS5003;60257;42.638;23.376;2022-10-16T02:00:50;18.00;18.00;11.67
72307;PMS5003;60257;42.638;23.376;2022-10-16T02:03:19;23.00;23.00;13.33
72307;PMS5003;60257;42.638;23.376;2022-10-16T02:08:12;23.33;22.00;13.00
72307;PMS5003;60257;42.638;23.376;2022-10-16T02:10:38;18.67;18.00;11.00
72307;PMS5003;60257;42.638;23.376;2022-10-16T02:15:39;26.00;22.00;14.00
72307;PMS5003;60257;42.638;23.376;2022-10-16T02:18:05;19.00;18.67;12.00
72307;PMS5003;60257;42.638;23.376;2022-10-16T02:20:34;22.67;19.33;12.67
72307;PMS5003;60257;42.638;23.376;2022-10-16T02:23:05;22.00;22.00;13.67
72307;PMS5003;60257;42.638;23.376;2022-10-16T02:25:37;18.00;18.00;12.00
72307;PMS5003;60257;42.638;23.376;2022-10-16T02:28:13;25.67;21.33;13.67
72307;PMS5003;60257;42.638;23.376;2022-10-16T02:30:49;22.67;22.00;14.00
72307;PMS5003;60257;42.638;23.376;2022-10-16T02:33:20;24.00;23.00;12.00
72307;PMS5003;60257;42.638;23.376;2022-10-16T02:35:47;19.33;18.33;13.00
72307;PMS5003;60257;42.638;23.376;2022-10-16T02:38:16;20.67;20.33;13.33
72307;PMS5003;60257;42.638;23.376;2022-10-16T02:40:43;17.33;17.00;7.00
72307;PMS5003;60257;42.638;23.376;2022-10-16T02:43:09;24.00;20.33;13.00
72307;PMS5003;60257;42.638;23.376;2022-10-16T02:45:35;23.33;23.00;15.33
72307;PMS5003;60257;42.638;23.376;2022-10-16T02:48:01;19.00;19.00;13.00
72307;PMS5003;60257;42.638;23.376;2022-10-16T02:50:27;18.00;17.00;11.33
72307;PMS5003;60257;42.638;23.376;2022-10-16T02:52:52;24.00;24.00;15.33
72307;PMS5003;60257;42.638;23.376;2022-10-16T02:55:18;22.33;20.00;13.67
72307;PMS5003;60257;42.638;23.376;2022-10-16T02:57:43;25.33;22.00;13.33
72307;PMS5003;60257;42.638;23.376;2022-10-16T03:00:09;24.67;23.67;15.33
72307;PMS5003;60257;42.638;23.376;2022-10-16T03:02:38;22.67;20.33;13.00
72307;PMS5003;60257;42.638;23.376;2022-10-16T03:05:03;22.00;22.00;13.00
72307;PMS5003;60257;42.638;23.376;2022-10-16T03:07:29;26.67;24.33;14.67
72307;PMS5003;60257;42.638;23.376;2022-10-16T03:09:54;24.33;24.33;16.33
72307;PMS5003;60257;42.638;23.376;2022-10-16T03:12:20;23.00;23.00;16.00
72307;PMS5003;60257;42.638;23.376;2022-10-16T03:14:46;26.00;24.00;15.00
72307;PMS5003;60257;42.638;23.376;2022-10-16T03:17:12;19.67;18.33;11.33
72307;PMS5003;60257;42.638;23.376;2022-10-16T03:19:38;23.00;23.00;13.67
72307;PMS5003;60257;42.638;23.376;2022-10-16T03:22:03;27.67;25.33;16.67
72307;PMS5003;60257;42.638;23.376;2022-10-16T03:24:29;26.33;21.33;12.67
72307;PMS5003;60257;42.638;23.376;2022-10-16T03:26:55;22.33;22.33;15.00
72307;PMS5003;60257;42.638;23.376;2022-10-16T03:29:20;31.00;27.33;18.00
72307;PMS5003;60257;42.638;23.376;2022-10-16T03:31:46;26.33;26.00;16.00
72307;PMS5003;60257;42.638;23.376;2022-10-16T03:34:13;28.00;26.00;17.00
72307;PMS5003;60257;42.638;23.376;2022-10-16T03:36:39;32.33;28.00;17.67
72307;PMS5003;60257;42.638;23.376;2022-10-16T03:39:04;21.00;21.00;12.00
72307;PMS5003;60257;42.638;23.376;2022-10-16T03:41:30;28.67;25.00;16.00
72307;PMS5003;60257;42.638;23.376;2022-10-16T03:43:55;25.67;25.00;16.67
72307;PMS5003;60257;42.638;23.376;2022-10-16T03:46:21;29.67;23.33;17.00
72307;PMS5003;60257;42.638;23.376;2022-10-16T03:48:46;26.33;25.33;14.67
72307;PMS5003;60257;42.638;23.376;2022-10-16T03:51:11;23.00;22.00;13.67
72307;PMS5003;60257;42.638;23.376;2022-10-16T03:53:37;27.67;25.00;17.33
72307;PMS5003;60257;42.638;23.376;2022-10-16T03:56:02;29.00;28.33;17.00
72307;PMS5003;60257;42.638;23.376;2022-10-16T03:58:28;29.00;27.67;15.33
72307;PMS5003;60257;42.638;23.376;2022-10-16T04:00:53;36.33;32.00;19.00
72307;PMS5003;60257;42.638;23.376;2022-10-16T04:03:19;31.67;29.33;19.33
72307;PMS5003;60257;42.638;23.376;2022-10-16T04:05:44;31.33;29.33;18.00
72307;PMS5003;60257;42.638;23.376;2022-10-16T04:08:10;31.67;29.67;20.00
72307;PMS5003;60257;42.638;23.376;2022-10-16T04:10:35;30.33;28.67;17.67
72307;PMS5003;60257;42.638;23.376;2022-10-16T04:13:01;17.67;17.67;10.67
72307;PMS5003;60257;42.638;23.376;2022-10-16T04:15:26;33.67;31.00;19.00
72307;PMS5003;60257;42.638;23.376;2022-10-16T04:17:52;31.67;29.67;16.67
72307;PMS5003;60257;42.638;23.376;2022-10-16T04:20:18;28.33;26.67;16.00
72307;PMS5003;60257;42.638;23.376;2022-10-16T04:22:43;24.67;22.00;13.33
72307;PMS5003;60257;42.638;23.376;2022-10-16T04:25:09;31.33;31.00;19.33
72307;PMS5003;60257;42.638;23.376;2022-10-16T04:27:36;39.67;33.00;19.33
72307;PMS5003;60257;42.638;23.376;2022-10-16T04:30:02;26.00;25.33;15.00
72307;PMS5003;60257;42.638;23.376;2022-10-16T04:32:28;20.00;15.67;8.67
72307;PMS5003;60257;42.638;23.376;2022-10-16T04:34:53;36.33;34.00;21.00
72307;PMS5003;60257;42.638;23.376;2022-10-16T04:37:19;33.00;29.33;17.33
72307;PMS5003;60257;42.638;23.376;2022-10-16T04:39:48;38.00;34.67;21.67
72307;PMS5003;60257;42.638;23.376;2022-10-16T04:42:13;33.67;33.67;25.00
72307;PMS5003;60257;42.638;23.376;2022-10-16T04:44:42;29.33;28.00;16.00
72307;PMS5003;60257;42.638;23.376;2022-10-16T04:47:07;34.33;34.33;17.00
72307;PMS5003;60257;42.638;23.376;2022-10-16T04:49:33;28.00;25.67;16.00
72307;PMS5003;60257;42.638;23.376;2022-10-16T04:51:58;33.00;33.00;21.00
72307;PMS5003;60257;42.638;23.376;2022-10-16T04:54:24;31.67;30.33;21.00
72307;PMS5003;60257;42.638;23.376;2022-10-16T04:56:49;23.00;21.00;15.67
72307;PMS5003;60257;42.638;23.376;2022-10-16T04:59:17;26.67;24.67;15.00
72307;PMS5003;60257;42.638;23.376;2022-10-16T05:01:43;26.33;24.00;16.00
72307;PMS5003;60257;42.638;23.376;2022-10-16T05:04:09;33.00;26.33;17.33
72307;PMS5003;60257;42.638;23.376;2022-10-16T05:06:35;33.33;30.00;20.00
72307;PMS5003;60257;42.638;23.376;2022-10-16T05:09:02;27.33;26.00;16.00
72307;PMS5003;60257;42.638;23.376;2022-10-16T05:11:27;34.33;33.00;17.67
72307;PMS5003;60257;42.638;23.376;2022-10-16T05:13:53;22.33;22.33;17.67
72307;PMS5003;60257;42.638;23.376;2022-10-16T05:16:19;27.67;26.67;15.67
72307;PMS5003;60257;42.638;23.376;2022-10-16T05:18:44;27.33;25.33;15.00
72307;PMS5003;60257;42.638;23.376;2022-10-16T05:21:09;26.33;25.00;16.00
72307;PMS5003;60257;42.638;23.376;2022-10-16T05:23:35;20.67;19.00;14.00
72307;PMS5003;60257;42.638;23.376;2022-10-16T05:26:00;33.33;33.00;18.67
72307;PMS5003;60257;42.638;23.376;2022-10-16T05:28:29;22.67;22.00;12.33
72307;PMS5003;60257;42.638;23.376;2022-10-16T05:30:55;12.00;10.67;2.00
72307;PMS5003;60257;42.638;23.376;2022-10-16T05:33:22;22.00;20.67;14.00
72307;PMS5003;60257;42.638;23.376;2022-10-16T05:35:49;27.00;26.33;17.00
72307;PMS5003;60257;42.638;23.376;2022-10-16T05:38:18;31.00;26.33;17.00
72307;PMS5003;60257;42.638;23.376;2022-10-16T05:40:50;25.00;25.00;15.00
72307;PMS5003;60257;42.638;23.376;2022-10-16T05:43:16;18.00;18.00;13.00
72307;PMS5003;60257;42.638;23.376;2022-10-16T05:45:42;27.00;26.00;15.33
72307;PMS5003;60257;42.638;23.376;2022-10-16T05:48:07;32.00;30.00;18.33
72307;PMS5003;60257;42.638;23.376;2022-10-16T05:50:33;31.67;26.00;17.00
72307;PMS5003;60257;42.638;23.376;2022-10-16T05:52:58;26.33;26.33;15.00
72307;PMS5003;60257;42.638;23.376;2022-10-16T05:55:24;28.33;26.67;17.00
72307;PMS5003;60257;42.638;23.376;2022-10-16T05:57:49;33.67;28.67;17.00
72307;PMS5003;60257;42.638;23.376;2022-10-16T06:00:15;24.33;24.33;16.00
72307;PMS5003;60257;42.638;23.376;2022-10-16T06:02:40;27.00;27.00;17.67
72307;PMS5003;60257;42.638;23.376;2022-10-16T06:05:06;29.33;26.33;19.00
72307;PMS5003;60257;42.638;23.376;2022-10-16T06:07:33;22.33;20.67;13.00
72307;PMS5003;60257;42.638;23.376;2022-10-16T06:10:00;37.00;32.00;21.00
72307;PMS5003;60257;42.638;23.376;2022-10-16T06:12:27;28.00;28.00;18.00
72307;PMS5003;60257;42.638;23.376;2022-10-16T06:14:53;31.00;31.00;20.33
72307;PMS5003;60257;42.638;23.376;2022-10-16T06:17:18;30.00;29.33;16.33
72307;PMS5003;60257;42.638;23.376;2022-10-16T06:19:44;25.00;22.33;16.00
72307;PMS5003;60257;42.638;23.376;2022-10-16T06:22:09;30.00;29.00;17.67
72307;PMS5003;60257;42.638;23.376;2022-10-16T06:24:35;30.00;28.67;18.33
72307;PMS5003;60257;42.638;23.376;2022-10-16T06:27:01;25.67;24.00;18.00
72307;PMS5003;60257;42.638;23.376;2022-10-16T06:29:28;20.00;19.33;10.33
72307;PMS5003;60257;42.638;23.376;2022-10-16T06:31:53;27.00;24.33;15.33
72307;PMS5003;60257;42.638;23.376;2022-10-16T06:34:19;17.00;17.00;11.33
72307;PMS5003;60257;42.638;23.376;2022-10-16T06:36:44;25.00;22.33;14.67
72307;PMS5003;60257;42.638;23.376;2022-10-16T06:39:10;36.33;30.00;19.67
72307;PMS5003;60257;42.638;23.376;2022-10-16T06:41:35;27.00;24.33;13.67
72307;PMS5003;60257;42.638;23.376;2022-10-16T06:44:04;17.00;15.00;10.00
72307;PMS5003;60257;42.638;23.376;2022-10-16T06:46:31;31.67;28.00;16.67
72307;PMS5003;60257;42.638;23.376;2022-10-16T06:48:57;25.00;24.33;17.33
72307;PMS5003;60257;42.638;23.376;2022-10-16T06:51:23;23.67;23.67;16.67
72307;PMS5003;60257;42.638;23.376;2022-10-16T06:53:53;21.00;20.67;12.67
72307;PMS5003;60257;42.638;23.376;2022-10-16T06:56:25;29.33;25.67;15.00
72307;PMS5003;60257;42.638;23.376;2022-10-16T06:58:53;29.00;26.00;16.33
72307;PMS5003;60257;42.638;23.376;2022-10-16T07:01:19;31.67;28.00;16.33
72307;PMS5003;60257;42.638;23.376;2022-10-16T07:03:46;30.67;28.67;18.33
72307;PMS5003;60257;42.638;23.376;2022-10-16T07:06:13;27.33;27.33;18.67
72307;PMS5003;60257;42.638;23.376;2022-10-16T07:08:41;32.67;29.33;21.00
72307;PMS5003;60257;42.638;23.376;2022-10-16T07:11:09;29.00;23.33;14.00
72307;PMS5003;60257;42.638;23.376;2022-10-16T07:13:36;35.33;33.67;19.33
72307;PMS5003;60257;42.638;23.376;2022-10-16T07:16:07;26.00;26.00;16.67
72307;PMS5003;60257;42.638;23.376;2022-10-16T07:18:33;33.00;29.67;20.00
72307;PMS5003;60257;42.638;23.376;2022-10-16T07:21:05;34.00;31.67;20.00
72307;PMS5003;60257;42.638;23.376;2022-10-16T07:23:30;32.00;31.33;18.33
72307;PMS5003;60257;42.638;23.376;2022-10-16T07:25:56;35.33;33.00;20.33
72307;PMS5003;60257;42.638;23.376;2022-10-16T07:28:21;36.33;35.33;22.00
72307;PMS5003;60257;42.638;23.376;2022-10-16T07:30:47;30.67;30.00;19.00
72307;PMS5003;60257;42.638;23.376;2022-10-16T07:33:13;36.33;34.33;20.67
72307;PMS5003;60257;42.638;23.376;2022-10-16T07:35:46;29.67;28.67;17.33
72307;PMS5003;60257;42.638;23.376;2022-10-16T07:38:15;29.33;27.00;18.00
72307;PMS5003;60257;42.638;23.376;2022-10-16T07:40:41;43.00;34.33;22.00
72307;PMS5003;60257;42.638;23.376;2022-10-16T07:43:06;34.00;34.00;20.33
72307;PMS5003;60257;42.638;23.376;2022-10-16T07:45:31;32.00;30.33;22.00
72307;PMS5003;60257;42.638;23.376;2022-10-16T07:47:57;31.33;31.33;18.00
72307;PMS5003;60257;42.638;23.376;2022-10-16T07:50:22;37.00;36.33;23.00
72307;PMS5003;60257;42.638;23.376;2022-10-16T07:52:48;40.00;35.00;23.00
72307;PMS5003;60257;42.638;23.376;2022-10-16T07:55:13;29.33;29.00;18.00
72307;PMS5003;60257;42.638;23.376;2022-10-16T07:57:39;36.67;35.67;21.67
72307;PMS5003;60257;42.638;23.376;2022-10-16T08:00:04;30.33;29.67;17.67
72307;PMS5003;60257;42.638;23.376;2022-10-16T08:02:31;36.67;32.00;20.00
72307;PMS5003;60257;42.638;23.376;2022-10-16T08:04:56;25.67;24.33;16.00
72307;PMS5003;60257;42.638;23.376;2022-10-16T08:07:22;30.67;28.67;17.00
72307;PMS5003;60257;42.638;23.376;2022-10-16T08:09:50;28.33;28.33;20.00
72307;PMS5003;60257;42.638;23.376;2022-10-16T08:12:17;35.00;32.67;17.67
72307;PMS5003;60257;42.638;23.376;2022-10-16T08:14:42;26.33;25.33;16.00
72307;PMS5003;60257;42.638;23.376;2022-10-16T08:17:07;28.00;25.00;16.00
72307;PMS5003;60257;42.638;23.376;2022-10-16T08:19:33;31.67;29.00;19.67
72307;PMS5003;60257;42.638;23.376;2022-10-16T08:21:59;25.00;25.00;17.00
72307;PMS5003;60257;42.638;23.376;2022-10-16T08:24:25;32.33;31.33;20.67
72307;PMS5003;60257;42.638;23.376;2022-10-16T08:26:53;24.67;22.33;15.33
72307;PMS5003;60257;42.638;23.376;2022-10-16T08:29:19;21.00;20.00;13.33
72307;PMS5003;60257;42.638;23.376;2022-10-16T08:31:45;29.33;27.33;18.00
72307;PMS5003;60257;42.638;23.376;2022-10-16T08:34:10;23.67;23.00;12.67
72307;PMS5003;60257;42.638;23.376;2022-10-16T08:36:35;27.00;27.00;18.33
72307;PMS5003;60257;42.638;23.376;2022-10-16T08:39:01;31.67;30.67;19.00
72307;PMS5003;60257;42.638;23.376;2022-10-16T08:49:40;25.00;23.00;14.67
72307;PMS5003;60257;42.638;23.376;2022-10-16T08:52:10;19.00;17.00;12.00
72307;PMS5003;60257;42.638;23.376;2022-10-16T08:54:41;23.00;21.00;13.00
72307;PMS5003;60257;42.638;23.376;2022-10-16T08:57:15;21.33;21.33;14.33
72307;PMS5003;60257;42.638;23.376;2022-10-16T08:59:43;20.33;17.33;12.00
72307;PMS5003;60257;42.638;23.376;2022-10-16T09:05:23;15.67;14.33;12.00
72307;PMS5003;60257;42.638;23.376;2022-10-16T09:08:19;14.00;13.67;7.00
72307;PMS5003;60257;42.638;23.376;2022-10-16T09:11:09;12.67;12.67;8.33
72307;PMS5003;60257;42.638;23.376;2022-10-16T09:16:37;14.67;14.67;8.67
72307;PMS5003;60257;42.638;23.376;2022-10-16T09:19:21;16.00;14.00;8.00
72307;PMS5003;60257;42.638;23.376;2022-10-16T09:21:53;17.33;17.00;9.33
72307;PMS5003;60257;42.638;23.376;2022-10-16T09:24:20;15.00;14.00;8.33
72307;PMS5003;60257;42.638;23.376;2022-10-16T09:26:49;17.33;16.67;11.67
72307;PMS5003;60257;42.638;23.376;2022-10-16T09:29:18;10.50;10.50;6.75
72307;PMS5003;60257;42.638;23.376;2022-10-16T09:31:46;13.00;13.00;8.50
72307;PMS5003;60257;42.638;23.376;2022-10-16T09:36:59;10.75;10.75;6.75
72307;PMS5003;60257;42.638;23.376;2022-10-16T09:39:29;13.00;13.00;8.00
72307;PMS5003;60257;42.638;23.376;2022-10-16T09:41:54;11.50;11.50;8.00
72307;PMS5003;60257;42.638;23.376;2022-10-16T09:44:25;9.75;9.75;5.25
72307;PMS5003;60257;42.638;23.376;2022-10-16T09:47:04;15.00;15.00;9.00
72307;PMS5003;60257;42.638;23.376;2022-10-16T09:49:55;9.25;9.25;5.75
72307;PMS5003;60257;42.638;23.376;2022-10-16T09:52:25;8.00;8.00;7.00
72307;PMS5003;60257;42.638;23.376;2022-10-16T09:54:58;11.00;9.25;5.00
72307;PMS5003;60257;42.638;23.376;2022-10-16T09:57:25;15.00;14.50;7.00
72307;PMS5003;60257;42.638;23.376;2022-10-16T09:59:53;12.50;12.50;7.00
72307;PMS5003;60257;42.638;23.376;2022-10-16T10:02:28;10.25;10.25;7.00
72307;PMS5003;60257;42.638;23.376;2022-10-16T10:05:04;10.25;10.00;7.00
72307;PMS5003;60257;42.638;23.376;2022-10-16T10:07:36;15.25;15.25;8.75
72307;PMS5003;60257;42.638;23.376;2022-10-16T10:10:21;14.25;12.75;7.75
72307;PMS5003;60257;42.638;23.376;2022-10-16T10:12:49;15.50;14.50;8.25
72307;PMS5003;60257;42.638;23.376;2022-10-16T10:15:15;14.50;14.00;9.00
72307;PMS5003;60257;42.638;23.376;2022-10-16T10:17:50;16.00;14.00;10.00
72307;PMS5003;60257;42.638;23.376;2022-10-16T10:20:30;11.00;11.00;7.00
72307;PMS5003;60257;42.638;23.376;2022-10-16T10:23:22;14.25;11.50;7.00
72307;PMS5003;60257;42.638;23.376;2022-10-16T10:25:58;16.75;13.75;9.00
72307;PMS5003;60257;42.638;23.376;2022-10-16T10:31:26;14.25;12.25;9.50
72307;PMS5003;60257;42.638;23.376;2022-10-16T10:40:11;18.00;16.50;9.75
72307;PMS5003;60257;42.638;23.376;2022-10-16T10:45:47;17.00;17.00;11.00
72307;PMS5003;60257;42.638;23.376;2022-10-16T10:48:20;17.50;16.50;9.25
72307;PMS5003;60257;42.638;23.376;2022-10-16T11:01:35;10.75;10.75;9.00
72307;PMS5003;60257;42.638;23.376;2022-10-16T11:09:21;7.25;7.25;5.00
72307;PMS5003;60257;42.638;23.376;2022-10-16T11:14:38;8.00;8.00;5.00
72307;PMS5003;60257;42.638;23.376;2022-10-16T11:17:16;7.00;7.00;5.00
72307;PMS5003;60257;42.638;23.376;2022-10-16T11:23:02;7.75;7.75;6.00
72307;PMS5003;60257;42.638;23.376;2022-10-16T11:25:52;9.00;6.75;4.50
72307;PMS5003;60257;42.638;23.376;2022-10-16T11:28:26;11.00;8.00;5.25
72307;PMS5003;60257;42.638;23.376;2022-10-16T11:33:59;10.00;10.00;6.75
72307;PMS5003;60257;42.638;23.376;2022-10-16T11:37:12;8.50;8.50;5.00
72307;PMS5003;60257;42.638;23.376;2022-10-16T11:39:42;10.50;9.25;6.50
72307;PMS5003;60257;42.638;23.376;2022-10-16T11:42:22;10.75;10.75;7.00
72307;PMS5003;60257;42.638;23.376;2022-10-16T11:53:21;9.00;8.75;6.75
72307;PMS5003;60257;42.638;23.376;2022-10-16T11:56:07;9.25;9.25;6.00
72307;PMS5003;60257;42.638;23.376;2022-10-16T12:06:55;10.25;9.50;5.75
72307;PMS5003;60257;42.638;23.376;2022-10-16T12:09:27;9.75;8.25;6.00
72307;PMS5003;60257;42.638;23.376;2022-10-16T12:11:55;13.75;12.50;7.75
72307;PMS5003;60257;42.638;23.376;2022-10-16T12:14:32;8.00;8.00;5.25
72307;PMS5003;60257;42.638;23.376;2022-10-16T12:17:02;13.00;11.00;8.00
72307;PMS5003;60257;42.638;23.376;2022-10-16T12:20:54;12.75;12.75;7.00
72307;PMS5003;60257;42.638;23.376;2022-10-16T12:27:56;7.25;6.75;5.75
72307;PMS5003;60257;42.638;23.376;2022-10-16T12:30:22;9.00;8.00;5.00
72307;PMS5003;60257;42.638;23.376;2022-10-16T12:32:53;8.50;7.50;5.75
72307;PMS5003;60257;42.638;23.376;2022-10-16T12:35:34;10.00;7.75;5.00
72307;PMS5003;60257;42.638;23.376;2022-10-16T12:41:12;7.00;7.00;4.00
72307;PMS5003;60257;42.638;23.376;2022-10-16T12:43:53;10.00;10.00;6.50
72307;PMS5003;60257;42.638;23.376;2022-10-16T12:48:44;8.50;8.50;5.25
72307;PMS5003;60257;42.638;23.376;2022-10-16T12:53:46;12.00;12.00;8.00
72307;PMS5003;60257;42.638;23.376;2022-10-16T13:01:29;10.75;10.75;7.00
72307;PMS5003;60257;42.638;23.376;2022-10-16T13:11:57;8.75;8.75;5.75
72307;PMS5003;60257;42.638;23.376;2022-10-16T13:17:23;13.00;9.00;6.00
72307;PMS5003;60257;42.638;23.376;2022-10-16T13:20:35;11.75;9.00;6.00
72307;PMS5003;60257;42.638;23.376;2022-10-16T13:23:30;10.50;10.50;6.50
72307;PMS5003;60257;42.638;23.376;2022-10-16T13:29:05;14.50;14.50;9.00
72307;PMS5003;60257;42.638;23.376;2022-10-16T13:31:31;13.00;12.00;6.75
72307;PMS5003;60257;42.638;23.376;2022-10-16T13:33:58;7.50;7.50;5.00
72307;PMS5003;60257;42.638;23.376;2022-10-16T13:36:26;7.50;7.50;5.75
72307;PMS5003;60257;42.638;23.376;2022-10-16T13:39:14;7.75;7.75;5.00
72307;PMS5003;60257;42.638;23.376;2022-10-16T13:41:57;8.25;8.00;6.00
72307;PMS5003;60257;42.638;23.376;2022-10-16T13:44:23;12.25;12.25;7.75
72307;PMS5003;60257;42.638;23.376;2022-10-16T13:46:58;7.25;6.50;5.00
72307;PMS5003;60257;42.638;23.376;2022-10-16T13:49:28;14.75;13.25;10.00
72307;PMS5003;60257;42.638;23.376;2022-10-16T13:51:57;10.25;10.25;6.50
72307;PMS5003;60257;42.638;23.376;2022-10-16T13:54:24;13.00;12.50;8.50
72307;PMS5003;60257;42.638;23.376;2022-10-16T13:56:51;12.00;10.50;6.75
72307;PMS5003;60257;42.638;23.376;2022-10-16T13:59:32;11.00;11.00;7.75
72307;PMS5003;60257;42.638;23.376;2022-10-16T14:01:59;18.50;17.25;11.25
72307;PMS5003;60257;42.638;23.376;2022-10-16T14:04:31;10.75;10.00;6.00
72307;PMS5003;60257;42.638;23.376;2022-10-16T14:06:58;9.00;9.00;6.50
72307;PMS5003;60257;42.638;23.376;2022-10-16T14:09:25;8.25;8.25;6.00
72307;PMS5003;60257;42.638;23.376;2022-10-16T14:11:54;13.50;12.00;7.00
72307;PMS5003;60257;42.638;23.376;2022-10-16T14:14:23;11.50;10.00;6.00
72307;PMS5003;60257;42.638;23.376;2022-10-16T14:16:50;11.00;9.50;7.00
72307;PMS5003;60257;42.638;23.376;2022-10-16T14:19:20;12.25;12.00;7.00
72307;PMS5003;60257;42.638;23.376;2022-10-16T14:21:49;14.25;14.25;9.50
72307;PMS5003;60257;42.638;23.376;2022-10-16T14:24:24;6.00;6.00;3.00
72307;PMS5003;60257;42.638;23.376;2022-10-16T14:27:00;9.00;7.75;4.25
72307;PMS5003;60257;42.638;23.376;2022-10-16T14:29:27;9.75;9.75;7.00
72307;PMS5003;60257;42.638;23.376;2022-10-16T14:34:29;6.75;6.75;4.75
72307;PMS5003;60257;42.638;23.376;2022-10-16T14:37:09;8.50;8.00;6.00
72307;PMS5003;60257;42.638;23.376;2022-10-16T14:39:49;10.75;9.50;6.00
72307;PMS5003;60257;42.638;23.376;2022-10-16T14:42:16;8.00;8.00;6.00
72307;PMS5003;60257;42.638;23.376;2022-10-16T14:44:44;8.00;8.00;5.75
72307;PMS5003;60257;42.638;23.376;2022-10-16T14:47:14;7.00;7.00;4.00
72307;PMS5003;60257;42.638;23.376;2022-10-16T14:49:47;8.00;8.00;4.00
72307;PMS5003;60257;42.638;23.376;2022-10-16T14:52:13;11.25;10.75;6.75
72307;PMS5003;60257;42.638;23.376;2022-10-16T14:54:39;8.50;8.50;5.00
72307;PMS5003;60257;42.638;23.376;2022-10-16T14:57:13;9.25;7.75;5.25
72307;PMS5003;60257;42.638;23.376;2022-10-16T14:59:42;8.00;8.00;5.50
72307;PMS5003;60257;42.638;23.376;2022-10-16T15:04:45;11.00;11.00;6.75
72307;PMS5003;60257;42.638;23.376;2022-10-16T15:07:11;8.00;8.00;5.50
72307;PMS5003;60257;42.638;23.376;2022-10-16T15:09:37;8.50;8.50;4.00
72307;PMS5003;60257;42.638;23.376;2022-10-16T15:12:02;8.00;6.75;4.00
72307;PMS5003;60257;42.638;23.376;2022-10-16T15:14:28;9.00;8.00;5.75
72307;PMS5003;60257;42.638;23.376;2022-10-16T15:16:53;9.75;9.00;7.00
72307;PMS5003;60257;42.638;23.376;2022-10-16T15:19:19;9.00;9.00;6.00
72307;PMS5003;60257;42.638;23.376;2022-10-16T15:21:44;11.25;9.25;7.25
72307;PMS5003;60257;42.638;23.376;2022-10-16T15:24:11;12.50;9.00;6.50
72307;PMS5003;60257;42.638;23.376;2022-10-16T15:26:38;9.75;9.75;6.75
72307;PMS5003;60257;42.638;23.376;2022-10-16T15:29:04;9.00;9.00;5.50
72307;PMS5003;60257;42.638;23.376;2022-10-16T15:31:30;10.50;10.50;6.50
72307;PMS5003;60257;42.638;23.376;2022-10-16T15:33:55;10.50;10.25;8.00
72307;PMS5003;60257;42.638;23.376;2022-10-16T15:36:29;16.75;13.50;8.00
72307;PMS5003;60257;42.638;23.376;2022-10-16T15:38:58;15.25;12.50;8.25
72307;PMS5003;60257;42.638;23.376;2022-10-16T15:41:24;12.00;12.00;7.75
72307;PMS5003;60257;42.638;23.376;2022-10-16T15:43:50;9.75;9.75;5.50
72307;PMS5003;60257;42.638;23.376;2022-10-16T15:46:18;11.25;11.25;7.00
72307;PMS5003;60257;42.638;23.376;2022-10-16T15:48:46;14.25;13.50;7.50
72307;PMS5003;60257;42.638;23.376;2022-10-16T15:51:12;13.50;10.25;7.25
72307;PMS5003;60257;42.638;23.376;2022-10-16T15:53:37;13.00;13.00;7.50
72307;PMS5003;60257;42.638;23.376;2022-10-16T15:56:04;17.00;17.00;10.00
72307;PMS5003;60257;42.638;23.376;2022-10-16T15:58:30;14.50;14.50;10.00
72307;PMS5003;60257;42.638;23.376;2022-10-16T16:00:57;19.25;17.00;11.00
72307;PMS5003;60257;42.638;23.376;2022-10-16T16:03:25;18.67;18.00;10.67
72307;PMS5003;60257;42.638;23.376;2022-10-16T16:05:52;18.33;16.33;9.00